createdAt,value
2023-01-30T00:00:42.688Z,17.05
2023-01-30T00:01:45.539Z,15.85
2023-01-30T00:02:47.843Z,16.85
2023-01-30T00:03:50.170Z,16.98
2023-01-30T00:04:52.384Z,16.50
2023-01-30T00:05:54.670Z,17.77
2023-01-30T00:06:56.932Z,16.02
2023-01-30T00:07:59.097Z,17.70
2023-01-30T00:09:01.353Z,16.00
2023-01-30T00:10:03.668Z,16.73
2023-01-30T00:11:11.703Z,16.58
2023-01-30T00:12:13.948Z,16.63
2023-01-30T00:13:16.435Z,16.92
2023-01-30T00:14:18.660Z,16.50
2023-01-30T00:15:20.887Z,17.15
2023-01-30T00:16:23.502Z,17.13
2023-01-30T00:17:25.844Z,17.35
2023-01-30T00:18:28.373Z,17.42
2023-01-30T00:19:30.598Z,16.92
2023-01-30T00:20:33.205Z,18.38
2023-01-30T00:21:35.593Z,17.45
2023-01-30T00:22:37.897Z,17.55
2023-01-30T00:23:40.464Z,18.23
2023-01-30T00:24:42.767Z,16.90
2023-01-30T00:25:46.626Z,17.45
2023-01-30T00:26:49.011Z,18.20
2023-01-30T00:27:51.338Z,18.10
2023-01-30T00:28:53.841Z,18.33
2023-01-30T00:30:02.843Z,17.35
2023-01-30T00:31:07.244Z,17.80
2023-01-30T00:32:09.506Z,18.48
2023-01-30T00:33:11.824Z,18.13
2023-01-30T00:34:14.178Z,17.65
2023-01-30T00:35:16.462Z,19.75
2023-01-30T00:36:18.681Z,18.40
2023-01-30T00:37:20.864Z,18.83
2023-01-30T00:38:24.021Z,18.45
2023-01-30T00:39:26.602Z,19.20
2023-01-30T00:40:30.592Z,18.65
2023-01-30T00:41:51.342Z,19.77
2023-01-30T00:44:37.960Z,19.83
2023-01-30T00:46:01.494Z,19.65
2023-01-30T00:47:06.971Z,19.23
2023-01-30T00:48:09.252Z,19.63
2023-01-30T00:49:11.588Z,20.52
2023-01-30T00:50:13.936Z,20.10
2023-01-30T00:51:18.816Z,22.50
2023-01-30T00:52:21.054Z,21.13
2023-01-30T00:53:23.366Z,21.08
2023-01-30T00:54:25.568Z,19.83
2023-01-30T00:55:27.829Z,20.08
2023-01-30T00:56:30.073Z,20.00
2023-01-30T00:57:33.044Z,19.85
2023-01-30T00:58:35.245Z,19.98
2023-01-30T00:59:38.750Z,19.42
2023-01-30T01:00:40.954Z,20.48
2023-01-30T01:01:43.252Z,20.42
2023-01-30T01:02:48.428Z,21.02
2023-01-30T01:03:50.767Z,21.10
2023-01-30T01:04:53.013Z,20.55
2023-01-30T01:05:55.360Z,21.92
2023-01-30T01:06:57.596Z,20.52
2023-01-30T01:07:59.803Z,21.58
2023-01-30T01:09:02.709Z,21.52
2023-01-30T01:10:05.948Z,20.27
2023-01-30T01:11:08.309Z,20.33
2023-01-30T01:12:10.532Z,20.65
2023-01-30T01:13:12.773Z,20.75
2023-01-30T01:14:15.006Z,20.85
2023-01-30T01:15:17.671Z,21.08
2023-01-30T01:16:20.646Z,20.33
2023-01-30T01:17:22.997Z,20.65
2023-01-30T01:18:25.388Z,20.95
2023-01-30T01:19:27.746Z,20.60
2023-01-30T01:20:30.029Z,20.45
2023-01-30T01:21:32.339Z,20.65
2023-01-30T01:22:34.545Z,21.45
2023-01-30T01:23:36.780Z,22.48
2023-01-30T01:24:38.943Z,19.85
2023-01-30T01:25:41.156Z,20.83
2023-01-30T01:26:44.179Z,21.27
2023-01-30T01:27:47.010Z,21.45
2023-01-30T01:28:59.234Z,21.30
2023-01-30T01:30:02.426Z,19.83
2023-01-30T01:31:09.557Z,20.98
2023-01-30T01:32:12.008Z,20.77
2023-01-30T01:33:15.855Z,21.85
2023-01-30T01:34:18.103Z,21.17
2023-01-30T01:35:20.586Z,21.13
2023-01-30T01:36:51.744Z,21.20
2023-01-30T01:37:46.203Z,20.75
2023-01-30T01:38:48.471Z,21.17
2023-01-30T01:40:09.604Z,21.80
2023-01-30T01:41:13.323Z,19.75
2023-01-30T01:42:15.846Z,20.88
2023-01-30T01:43:21.525Z,21.83
2023-01-30T01:44:24.887Z,21.50
2023-01-30T01:45:27.128Z,21.13
2023-01-30T01:46:31.879Z,21.70
2023-01-30T01:47:35.251Z,22.20
2023-01-30T01:48:47.103Z,21.60
2023-01-30T01:49:49.441Z,23.33
2023-01-30T01:50:57.214Z,21.92
2023-01-30T01:52:11.483Z,22.80
2023-01-30T01:53:17.700Z,22.10
2023-01-30T01:54:33.699Z,22.50
2023-01-30T01:55:37.298Z,22.00
2023-01-30T01:56:45.843Z,21.13
2023-01-30T01:57:53.803Z,21.35
2023-01-30T01:59:01.596Z,20.15
2023-01-30T02:02:14.379Z,21.23
2023-01-30T02:03:23.149Z,20.50
2023-01-30T02:04:47.842Z,20.73
2023-01-30T02:05:55.549Z,20.02
2023-01-30T02:06:59.640Z,21.80
2023-01-30T02:08:43.773Z,19.15
2023-01-30T02:09:46.351Z,18.95
2023-01-30T02:10:58.394Z,19.60
2023-01-30T02:12:03.773Z,18.30
2023-01-30T02:13:07.516Z,18.63
2023-01-30T02:14:12.116Z,19.88
2023-01-30T02:15:14.335Z,19.23
2023-01-30T02:16:17.982Z,19.42
2023-01-30T02:17:20.541Z,19.10
2023-01-30T02:18:23.203Z,19.58
2023-01-30T02:19:39.333Z,19.98
2023-01-30T02:20:56.199Z,19.25
2023-01-30T02:22:16.746Z,18.75
2023-01-30T02:23:21.715Z,19.23
2023-01-30T02:24:55.343Z,18.25
2023-01-30T02:26:23.958Z,18.20
2023-01-30T02:28:03.751Z,18.50
2023-01-30T02:29:14.781Z,17.98
2023-01-30T02:30:36.068Z,19.60
2023-01-30T02:31:50.250Z,18.77
2023-01-30T02:33:30.685Z,19.58
2023-01-30T02:34:57.514Z,19.17
2023-01-30T02:36:05.613Z,19.25
2023-01-30T02:37:26.258Z,19.70
2023-01-30T02:38:50.746Z,19.38
2023-01-30T02:40:35.581Z,19.10
2023-01-30T02:41:49.563Z,18.02
2023-01-30T02:42:57.642Z,18.13
2023-01-30T02:44:09.827Z,19.25
2023-01-30T02:45:30.677Z,18.98
2023-01-30T02:46:36.207Z,18.70
2023-01-30T02:47:49.085Z,18.05
2023-01-30T02:48:59.457Z,16.90
2023-01-30T02:50:13.275Z,19.63
2023-01-30T02:51:22.015Z,16.98
2023-01-30T02:52:25.016Z,17.08
2023-01-30T02:53:32.871Z,17.10
2023-01-30T02:54:35.224Z,18.88
2023-01-30T02:55:41.837Z,18.08
2023-01-30T02:56:54.670Z,18.38
2023-01-30T02:57:58.389Z,18.75
2023-01-30T02:59:06.869Z,17.52
2023-01-30T03:00:11.493Z,18.38
2023-01-30T03:01:37.569Z,17.90
2023-01-30T03:03:30.372Z,17.88
2023-01-30T03:04:53.557Z,17.88
2023-01-30T03:06:26.818Z,18.52
2023-01-30T03:07:41.188Z,17.42
2023-01-30T03:09:05.128Z,17.52
2023-01-30T03:10:35.006Z,17.05
2023-01-30T03:11:47.896Z,16.70
2023-01-30T03:13:14.772Z,16.95
2023-01-30T03:14:24.093Z,14.55
2023-01-30T03:15:41.905Z,16.05
2023-01-30T03:16:44.748Z,15.55
2023-01-30T03:17:48.041Z,15.30
2023-01-30T03:18:52.273Z,15.52
2023-01-30T03:19:55.372Z,15.27
2023-01-30T03:21:04.498Z,15.30
2023-01-30T03:22:06.948Z,14.95
2023-01-30T03:23:09.343Z,14.38
2023-01-30T03:24:12.966Z,15.65
2023-01-30T03:25:20.859Z,15.07
2023-01-30T03:26:29.121Z,14.27
2023-01-30T03:27:32.122Z,15.07
2023-01-30T03:28:35.304Z,15.00
2023-01-30T03:29:38.488Z,15.48
2023-01-30T03:30:41.394Z,15.55
2023-01-30T03:31:45.347Z,15.07
2023-01-30T03:32:47.802Z,15.35
2023-01-30T03:33:50.338Z,15.05
2023-01-30T03:34:52.793Z,13.95
2023-01-30T03:35:55.578Z,13.95
2023-01-30T03:36:59.308Z,13.60
2023-01-30T03:38:02.273Z,14.70
2023-01-30T03:39:05.136Z,14.88
2023-01-30T03:40:08.241Z,15.07
2023-01-30T03:41:10.648Z,14.70
2023-01-30T03:42:15.152Z,14.13
2023-01-30T03:43:18.224Z,14.25
2023-01-30T03:44:20.691Z,13.60
2023-01-30T03:45:22.867Z,14.25
2023-01-30T03:46:25.242Z,13.95
2023-01-30T03:47:27.587Z,14.38
2023-01-30T03:48:31.068Z,14.43
2023-01-30T03:49:33.559Z,14.40
2023-01-30T03:50:36.181Z,14.10
2023-01-30T03:51:38.386Z,12.50
2023-01-30T03:52:40.612Z,14.45
2023-01-30T03:53:46.634Z,13.60
2023-01-30T03:54:48.967Z,13.88
2023-01-30T03:55:51.418Z,13.82
2023-01-30T03:56:59.498Z,13.48
2023-01-30T03:58:01.748Z,12.63
2023-01-30T03:59:07.164Z,13.18
2023-01-30T04:00:16.727Z,13.13
2023-01-30T04:01:19.067Z,12.70
2023-01-30T04:02:23.370Z,12.48
2023-01-30T04:03:26.344Z,13.07
2023-01-30T04:04:33.049Z,12.00
2023-01-30T04:05:36.080Z,14.07
2023-01-30T04:06:41.388Z,12.63
2023-01-30T04:07:43.813Z,12.93
2023-01-30T04:08:46.769Z,13.00
2023-01-30T04:10:01.392Z,12.65
2023-01-30T04:11:03.856Z,13.30
2023-01-30T04:12:06.468Z,14.63
2023-01-30T04:13:14.240Z,13.10
2023-01-30T04:14:17.187Z,13.05
2023-01-30T04:15:45.899Z,13.43
2023-01-30T04:17:06.451Z,13.63
2023-01-30T04:18:43.620Z,13.73
2023-01-30T04:19:53.253Z,13.52
2023-01-30T04:20:55.567Z,13.38
2023-01-30T04:22:05.036Z,14.48
2023-01-30T04:23:08.093Z,13.77
2023-01-30T04:24:10.596Z,13.30
2023-01-30T04:25:12.820Z,14.13
2023-01-30T04:26:15.393Z,14.38
2023-01-30T04:27:17.674Z,13.50
2023-01-30T04:28:38.826Z,13.25
2023-01-30T04:29:42.402Z,14.20
2023-01-30T04:30:46.689Z,12.55
2023-01-30T04:32:09.964Z,12.52
2023-01-30T04:33:13.949Z,12.85
2023-01-30T04:34:16.766Z,13.57
2023-01-30T04:35:19.415Z,12.65
2023-01-30T04:36:22.190Z,14.25
2023-01-30T04:37:25.161Z,12.15
2023-01-30T04:38:29.190Z,12.02
2023-01-30T04:39:32.079Z,11.63
2023-01-30T04:40:34.494Z,12.88
2023-01-30T04:41:36.765Z,11.80
2023-01-30T04:42:40.072Z,10.95
2023-01-30T04:44:08.417Z,11.80
2023-01-30T04:45:24.036Z,10.50
2023-01-30T04:46:27.422Z,11.43
2023-01-30T04:47:30.925Z,11.23
2023-01-30T04:48:33.218Z,11.30
2023-01-30T04:49:37.216Z,10.65
2023-01-30T04:50:43.053Z,10.05
2023-01-30T04:51:45.327Z,10.93
2023-01-30T04:52:47.522Z,10.95
2023-01-30T04:53:49.818Z,11.13
2023-01-30T04:54:52.093Z,10.65
2023-01-30T04:55:54.462Z,11.25
2023-01-30T04:56:57.675Z,11.23
2023-01-30T04:58:00.196Z,11.45
2023-01-30T04:59:02.508Z,11.30
2023-01-30T05:00:11.187Z,11.45
2023-01-30T05:01:25.873Z,11.60
2023-01-30T05:02:28.095Z,10.90
2023-01-30T05:03:30.336Z,11.60
2023-01-30T05:04:32.734Z,11.60
2023-01-30T05:05:34.949Z,11.23
2023-01-30T05:06:37.266Z,11.15
2023-01-30T05:07:39.857Z,11.60
2023-01-30T05:08:42.045Z,11.52
2023-01-30T05:09:44.260Z,11.90
2023-01-30T05:10:46.538Z,11.60
2023-01-30T05:11:48.698Z,11.38
2023-01-30T05:12:50.916Z,11.32
2023-01-30T05:13:53.449Z,11.20
2023-01-30T05:14:55.708Z,12.45
2023-01-30T05:15:57.948Z,11.63
2023-01-30T05:17:00.267Z,11.93
2023-01-30T05:18:02.635Z,12.38
2023-01-30T05:19:04.868Z,11.13
2023-01-30T05:20:09.275Z,12.40
2023-01-30T05:21:14.534Z,11.70
2023-01-30T05:22:16.779Z,12.27
2023-01-30T05:23:19.028Z,12.10
2023-01-30T05:24:21.332Z,11.80
2023-01-30T05:25:23.553Z,12.05
2023-01-30T05:26:25.886Z,12.88
2023-01-30T05:27:28.236Z,12.93
2023-01-30T05:28:31.030Z,13.02
2023-01-30T05:29:33.196Z,12.63
2023-01-30T05:30:35.492Z,12.52
2023-01-30T05:31:38.813Z,12.23
2023-01-30T05:32:41.064Z,12.05
2023-01-30T05:33:46.000Z,11.82
2023-01-30T05:34:48.663Z,12.52
2023-01-30T05:35:50.920Z,12.60
2023-01-30T05:36:53.091Z,11.65
2023-01-30T05:37:55.251Z,11.25
2023-01-30T05:38:57.621Z,12.48
2023-01-30T05:39:59.966Z,11.45
2023-01-30T05:41:07.276Z,11.93
2023-01-30T05:42:09.477Z,11.60
2023-01-30T05:43:11.668Z,12.00
2023-01-30T05:44:13.932Z,11.27
2023-01-30T05:45:16.883Z,12.45
2023-01-30T05:46:19.892Z,11.30
2023-01-30T05:47:22.151Z,11.65
2023-01-30T05:48:25.043Z,11.43
2023-01-30T05:49:27.269Z,10.75
2023-01-30T05:50:30.271Z,11.00
2023-01-30T05:51:33.602Z,10.95
2023-01-30T05:52:35.813Z,11.20
2023-01-30T05:53:38.033Z,10.45
2023-01-30T05:54:40.217Z,10.30
2023-01-30T05:55:43.794Z,10.68
2023-01-30T05:56:50.240Z,10.70
2023-01-30T05:57:52.483Z,10.30
2023-01-30T05:58:56.218Z,10.70
2023-01-30T05:59:58.417Z,10.48
2023-01-30T06:01:06.716Z,9.73
2023-01-30T06:02:11.063Z,11.05
2023-01-30T06:03:13.352Z,10.45
2023-01-30T06:04:15.669Z,9.90
2023-01-30T06:05:18.602Z,9.93
2023-01-30T06:06:21.904Z,10.52
2023-01-30T06:07:24.137Z,10.63
2023-01-30T06:08:26.564Z,10.55
2023-01-30T06:09:28.735Z,10.30
2023-01-30T06:10:30.932Z,10.40
2023-01-30T06:11:33.167Z,9.80
2023-01-30T06:12:35.440Z,10.13
2023-01-30T06:13:38.727Z,10.75
2023-01-30T06:14:40.947Z,10.55
2023-01-30T06:15:43.300Z,9.68
2023-01-30T06:16:45.653Z,10.15
2023-01-30T06:17:47.972Z,10.00
2023-01-30T06:18:50.267Z,10.57
2023-01-30T06:19:52.539Z,11.00
2023-01-30T06:20:55.222Z,9.55
2023-01-30T06:21:57.538Z,10.35
2023-01-30T06:22:59.722Z,10.85
2023-01-30T06:24:02.235Z,10.13
2023-01-30T06:25:05.059Z,9.73
2023-01-30T06:26:09.215Z,10.50
2023-01-30T06:27:11.600Z,9.48
2023-01-30T06:28:15.014Z,10.05
2023-01-30T06:29:17.232Z,9.88
2023-01-30T06:30:19.539Z,9.43
2023-01-30T06:31:21.853Z,10.38
2023-01-30T06:32:24.137Z,10.32
2023-01-30T06:33:26.343Z,9.82
2023-01-30T06:34:28.598Z,9.75
2023-01-30T06:35:30.771Z,10.35
2023-01-30T06:36:33.100Z,9.85
2023-01-30T06:37:35.300Z,9.57
2023-01-30T06:38:37.679Z,9.82
2023-01-30T06:39:39.930Z,9.68
2023-01-30T06:40:45.032Z,10.20
2023-01-30T06:41:47.230Z,10.10
2023-01-30T06:42:49.955Z,9.88
2023-01-30T06:43:52.331Z,10.00
2023-01-30T06:44:54.557Z,8.55
2023-01-30T06:45:59.003Z,10.27
2023-01-30T06:47:01.192Z,10.60
2023-01-30T06:48:03.811Z,9.82
2023-01-30T06:49:06.069Z,10.10
2023-01-30T06:50:08.650Z,9.20
2023-01-30T06:51:10.925Z,10.40
2023-01-30T06:52:13.130Z,10.23
2023-01-30T06:53:15.375Z,9.75
2023-01-30T06:54:17.574Z,10.23
2023-01-30T06:55:21.948Z,9.88
2023-01-30T06:56:24.176Z,9.93
2023-01-30T06:57:26.388Z,9.63
2023-01-30T06:58:28.643Z,9.50
2023-01-30T06:59:30.870Z,9.68
2023-01-30T07:00:33.761Z,10.30
2023-01-30T07:01:36.121Z,9.70
2023-01-30T07:02:38.617Z,10.25
2023-01-30T07:03:40.775Z,10.13
2023-01-30T07:04:42.945Z,9.40
2023-01-30T07:05:47.139Z,9.77
2023-01-30T07:06:49.936Z,9.75
2023-01-30T07:07:52.151Z,10.13
2023-01-30T07:08:56.295Z,8.98
2023-01-30T07:10:07.966Z,9.43
2023-01-30T07:11:11.011Z,10.25
2023-01-30T07:12:13.200Z,9.60
2023-01-30T07:13:15.857Z,9.63
2023-01-30T07:14:18.125Z,9.00
2023-01-30T07:15:20.643Z,9.20
2023-01-30T07:16:29.012Z,8.82
2023-01-30T07:17:31.255Z,9.65
2023-01-30T07:18:33.495Z,8.85
2023-01-30T07:19:35.688Z,9.35
2023-01-30T07:20:38.047Z,9.05
2023-01-30T07:21:40.301Z,9.45
2023-01-30T07:22:42.545Z,13.05
2023-01-30T07:23:46.855Z,9.90
2023-01-30T07:24:49.050Z,8.60
2023-01-30T07:25:51.466Z,9.23
2023-01-30T07:26:53.739Z,8.88
2023-01-30T07:28:02.546Z,9.25
2023-01-30T07:29:04.792Z,9.23
2023-01-30T07:30:07.515Z,8.85
2023-01-30T07:31:09.777Z,9.02
2023-01-30T07:32:19.065Z,9.20
2023-01-30T07:33:21.597Z,8.88
2023-01-30T07:34:23.750Z,8.98
2023-01-30T07:35:28.993Z,9.10
2023-01-30T07:36:33.547Z,9.35
2023-01-30T07:37:35.792Z,8.85
2023-01-30T07:38:38.065Z,10.00
2023-01-30T07:39:40.290Z,9.18
2023-01-30T07:40:42.520Z,9.45
2023-01-30T07:41:44.741Z,9.30
2023-01-30T07:42:57.096Z,9.48
2023-01-30T07:43:59.265Z,9.82
2023-01-30T07:45:01.461Z,9.13
2023-01-30T07:46:03.958Z,9.57
2023-01-30T07:47:06.417Z,9.57
2023-01-30T07:48:10.931Z,9.65
2023-01-30T07:49:13.134Z,9.38
2023-01-30T07:50:16.170Z,9.25
2023-01-30T07:51:18.678Z,9.48
2023-01-30T07:52:20.842Z,8.90
2023-01-30T07:53:23.897Z,9.48
2023-01-30T07:54:26.794Z,8.68
2023-01-30T07:55:28.951Z,9.55
2023-01-30T07:56:31.218Z,9.13
2023-01-30T07:57:33.485Z,9.10
2023-01-30T07:58:35.949Z,9.27
2023-01-30T07:59:38.181Z,8.98
2023-01-30T08:00:40.497Z,8.77
2023-01-30T08:01:42.743Z,8.43
2023-01-30T08:02:45.015Z,8.05
2023-01-30T08:03:49.134Z,8.57
2023-01-30T08:04:51.424Z,8.30
2023-01-30T08:05:54.134Z,8.18
2023-01-30T08:06:56.470Z,7.55
2023-01-30T08:08:00.700Z,8.07
2023-01-30T08:09:03.010Z,7.57
2023-01-30T08:10:06.015Z,8.75
2023-01-30T08:11:08.312Z,8.32
2023-01-30T08:12:10.535Z,7.45
2023-01-30T08:13:12.838Z,7.63
2023-01-30T08:14:15.113Z,7.70
2023-01-30T08:15:17.355Z,7.38
2023-01-30T08:16:19.715Z,7.70
2023-01-30T08:17:22.023Z,7.70
2023-01-30T08:18:24.279Z,7.32
2023-01-30T08:19:26.552Z,7.60
2023-01-30T08:20:28.976Z,7.38
2023-01-30T08:21:31.209Z,7.05
2023-01-30T08:22:33.453Z,7.82
2023-01-30T08:23:35.879Z,7.70
2023-01-30T08:24:38.105Z,7.50
2023-01-30T08:25:40.356Z,7.07
2023-01-30T08:26:42.628Z,7.03
2023-01-30T08:27:44.950Z,6.93
2023-01-30T08:28:47.184Z,7.20
2023-01-30T08:29:49.437Z,7.00
2023-01-30T08:30:53.306Z,6.22
2023-01-30T08:31:59.081Z,7.53
2023-01-30T08:33:01.376Z,6.95
2023-01-30T08:34:03.689Z,7.13
2023-01-30T08:35:06.333Z,6.97
2023-01-30T08:36:09.070Z,7.32
2023-01-30T08:37:11.381Z,7.57
2023-01-30T08:38:14.327Z,6.60
2023-01-30T08:39:17.166Z,6.68
2023-01-30T08:40:19.842Z,6.57
2023-01-30T08:41:22.278Z,6.43
2023-01-30T08:42:24.548Z,6.75
2023-01-30T08:43:27.443Z,7.18
2023-01-30T08:44:29.673Z,7.00
2023-01-30T08:45:32.232Z,6.28
2023-01-30T08:46:34.582Z,6.50
2023-01-30T08:47:37.169Z,6.20
2023-01-30T08:48:49.620Z,6.47
2023-01-30T08:49:53.007Z,6.55
2023-01-30T08:50:56.472Z,6.22
2023-01-30T08:51:58.752Z,6.25
2023-01-30T08:53:09.002Z,6.63
2023-01-30T08:54:11.398Z,6.55
2023-01-30T08:55:13.626Z,6.75
2023-01-30T08:56:16.039Z,7.20
2023-01-30T08:57:18.406Z,6.85
2023-01-30T08:58:21.498Z,6.40
2023-01-30T08:59:23.766Z,6.55
2023-01-30T09:00:27.026Z,6.82
2023-01-30T09:01:29.688Z,6.25
2023-01-30T09:02:32.239Z,6.70
2023-01-30T09:03:34.627Z,6.95
2023-01-30T09:04:36.885Z,6.95
2023-01-30T09:05:39.146Z,6.40
2023-01-30T09:06:41.415Z,6.45
2023-01-30T09:07:43.644Z,5.80
2023-01-30T09:08:45.933Z,5.90
2023-01-30T09:09:48.614Z,6.03
2023-01-30T09:10:50.784Z,6.13
2023-01-30T09:11:53.042Z,6.45
2023-01-30T09:12:55.524Z,6.50
2023-01-30T09:13:57.873Z,6.32
2023-01-30T09:15:00.432Z,6.53
2023-01-30T09:16:04.057Z,6.70
2023-01-30T09:17:06.324Z,6.20
2023-01-30T09:18:08.558Z,6.57
2023-01-30T09:19:10.788Z,5.53
2023-01-30T09:20:13.260Z,6.28
2023-01-30T09:21:15.703Z,6.22
2023-01-30T09:22:18.003Z,5.70
2023-01-30T09:23:20.259Z,6.03
2023-01-30T09:24:26.840Z,6.20
2023-01-30T09:25:29.161Z,6.03
2023-01-30T09:26:31.460Z,6.20
2023-01-30T09:27:33.700Z,6.05
2023-01-30T09:28:35.971Z,6.18
2023-01-30T09:29:38.188Z,6.47
2023-01-30T09:30:40.481Z,6.30
2023-01-30T09:31:42.787Z,6.25
2023-01-30T09:32:45.488Z,6.00
2023-01-30T09:33:48.045Z,6.00
2023-01-30T09:34:50.293Z,6.70
2023-01-30T09:35:52.920Z,6.13
2023-01-30T09:36:56.685Z,5.65
2023-01-30T09:37:59.246Z,5.93
2023-01-30T09:39:01.505Z,6.18
2023-01-30T09:40:04.519Z,5.93
2023-01-30T09:41:06.723Z,6.43
2023-01-30T09:42:24.688Z,6.53
2023-01-30T09:43:36.477Z,6.20
2023-01-30T09:44:47.475Z,6.45
2023-01-30T09:46:19.090Z,6.63
2023-01-30T09:47:39.405Z,6.07
2023-01-30T09:48:53.669Z,6.30
2023-01-30T09:50:11.488Z,6.03
2023-01-30T09:51:30.956Z,6.50
2023-01-30T09:53:06.762Z,5.93
2023-01-30T09:54:22.164Z,6.68
2023-01-30T09:55:28.000Z,6.85
2023-01-30T09:56:30.859Z,6.13
2023-01-30T09:57:33.231Z,5.60
2023-01-30T09:58:56.597Z,6.43
2023-01-30T10:00:04.852Z,6.32
2023-01-30T10:01:26.749Z,6.53
2023-01-30T10:02:28.927Z,6.03
2023-01-30T10:03:39.682Z,5.70
2023-01-30T10:05:00.649Z,6.05
2023-01-30T10:06:12.661Z,6.30
2023-01-30T10:07:36.364Z,6.30
2023-01-30T10:09:01.477Z,6.80
2023-01-30T10:10:17.767Z,6.68
2023-01-30T10:11:44.091Z,6.00
2023-01-30T10:13:14.883Z,6.72
2023-01-30T10:14:36.122Z,5.60
2023-01-30T10:15:50.529Z,6.25
2023-01-30T10:17:11.354Z,6.60
2023-01-30T10:18:20.277Z,7.13
2023-01-30T10:19:50.346Z,6.85
2023-01-30T10:21:08.958Z,7.25
2023-01-30T10:22:22.994Z,6.88
2023-01-30T10:23:44.541Z,6.88
2023-01-30T10:25:21.891Z,6.35
2023-01-30T10:26:27.490Z,6.85
2023-01-30T10:27:31.542Z,7.50
2023-01-30T10:28:55.579Z,7.22
2023-01-30T10:30:06.531Z,6.80
2023-01-30T10:31:13.974Z,6.82
2023-01-30T10:32:22.537Z,6.53
2023-01-30T10:33:28.637Z,7.13
2023-01-30T10:34:41.247Z,6.15
2023-01-30T10:35:44.390Z,6.93
2023-01-30T10:36:56.020Z,6.63
2023-01-30T10:38:13.044Z,7.00
2023-01-30T10:39:36.868Z,6.97
2023-01-30T10:40:54.733Z,7.03
2023-01-30T10:42:08.953Z,6.25
2023-01-30T10:43:48.677Z,6.63
2023-01-30T10:44:52.839Z,5.95
2023-01-30T10:46:36.596Z,7.35
2023-01-30T10:48:06.946Z,6.22
2023-01-30T10:49:18.490Z,7.35
2023-01-30T10:50:44.829Z,6.38
2023-01-30T10:52:00.289Z,6.85
2023-01-30T10:53:21.364Z,6.97
2023-01-30T10:54:41.701Z,6.03
2023-01-30T10:56:06.801Z,6.28
2023-01-30T10:57:32.147Z,6.85
2023-01-30T10:58:54.182Z,6.25
2023-01-30T11:00:07.986Z,7.00
2023-01-30T11:01:32.460Z,6.53
2023-01-30T11:02:51.884Z,7.30
2023-01-30T11:04:06.674Z,6.65
2023-01-30T11:05:18.422Z,6.78
2023-01-30T11:06:25.139Z,7.55
2023-01-30T11:07:31.158Z,6.53
2023-01-30T11:08:34.856Z,7.15
2023-01-30T11:09:46.134Z,7.53
2023-01-30T11:10:49.313Z,7.18
2023-01-30T11:11:54.085Z,8.05
2023-01-30T11:13:00.908Z,7.75
2023-01-30T11:14:07.434Z,7.40
2023-01-30T11:15:10.320Z,8.02
2023-01-30T11:16:13.136Z,8.32
2023-01-30T11:17:18.300Z,7.90
2023-01-30T11:19:45.148Z,7.70
2023-01-30T11:20:57.463Z,7.65
2023-01-30T11:22:06.274Z,8.15
2023-01-30T11:23:23.432Z,7.88
2023-01-30T11:24:45.515Z,8.80
2023-01-30T11:25:56.690Z,8.40
2023-01-30T11:27:21.478Z,7.45
2023-01-30T11:28:26.111Z,7.60
2023-01-30T11:29:35.025Z,7.45
2023-01-30T11:30:37.406Z,7.25
2023-01-30T11:31:41.839Z,7.57
2023-01-30T11:32:47.439Z,7.03
2023-01-30T11:34:01.575Z,7.03
2023-01-30T11:35:06.555Z,7.78
2023-01-30T11:36:26.951Z,7.50
2023-01-30T11:37:37.795Z,7.45
2023-01-30T11:38:59.892Z,7.90
2023-01-30T11:40:17.202Z,7.78
2023-01-30T11:41:21.619Z,7.25
2023-01-30T11:42:32.962Z,7.82
2023-01-30T11:43:37.357Z,7.60
2023-01-30T11:44:42.363Z,6.72
2023-01-30T11:45:49.934Z,8.13
2023-01-30T11:46:52.400Z,7.90
2023-01-30T11:47:59.311Z,8.80
2023-01-30T11:49:47.151Z,8.23
2023-01-30T11:50:46.218Z,7.35
2023-01-30T11:51:54.175Z,8.10
2023-01-30T11:53:02.709Z,7.57
2023-01-30T11:54:08.763Z,7.88
2023-01-30T11:55:16.052Z,7.43
2023-01-30T11:56:33.565Z,7.30
2023-01-30T11:57:45.207Z,7.70
2023-01-30T11:58:58.107Z,8.13
2023-01-30T12:00:00.997Z,8.25
2023-01-30T12:01:04.233Z,7.53
2023-01-30T12:02:20.015Z,8.32
2023-01-30T12:03:25.621Z,7.63
2023-01-30T12:04:28.321Z,7.82
2023-01-30T12:05:34.600Z,7.35
2023-01-30T12:06:39.617Z,7.43
2023-01-30T12:07:46.354Z,7.97
2023-01-30T12:08:52.431Z,8.27
2023-01-30T12:09:55.915Z,7.28
2023-01-30T12:11:01.459Z,8.27
2023-01-30T12:12:24.155Z,7.55
2023-01-30T12:13:31.740Z,8.13
2023-01-30T12:14:44.396Z,8.05
2023-01-30T12:15:52.815Z,7.35
2023-01-30T12:17:19.540Z,7.45
2023-01-30T12:18:36.354Z,7.50
2023-01-30T12:20:12.907Z,7.80
2023-01-30T12:21:41.951Z,7.15
2023-01-30T12:23:11.497Z,7.25
2023-01-30T12:24:42.163Z,8.52
2023-01-30T12:26:12.177Z,8.15
2023-01-30T12:27:48.441Z,7.93
2023-01-30T12:28:56.650Z,11.43
2023-01-30T12:30:10.700Z,8.55
2023-01-30T12:31:25.723Z,9.02
2023-01-30T12:32:31.439Z,8.40
2023-01-30T12:33:35.465Z,8.75
2023-01-30T12:34:37.977Z,8.40
2023-01-30T12:36:24.124Z,8.75
2023-01-30T12:37:57.611Z,8.13
2023-01-30T12:40:24.791Z,8.80
2023-01-30T12:41:45.840Z,8.63
2023-01-30T12:43:26.219Z,9.02
2023-01-30T12:44:57.537Z,8.27
2023-01-30T12:46:27.090Z,9.20
2023-01-30T12:47:50.665Z,9.20
2023-01-30T12:49:11.367Z,10.50
2023-01-30T12:50:20.981Z,9.32
2023-01-30T12:51:54.651Z,9.27
2023-01-30T12:52:57.452Z,10.30
2023-01-30T12:54:19.128Z,8.80
2023-01-30T12:56:03.069Z,9.48
2023-01-30T12:57:14.286Z,9.20
2023-01-30T12:58:37.061Z,9.95
2023-01-30T13:00:05.804Z,9.00
2023-01-30T13:01:33.578Z,10.52
2023-01-30T13:02:41.572Z,9.25
2023-01-30T13:03:55.339Z,9.85
2023-01-30T13:05:44.975Z,10.32
2023-01-30T13:07:01.969Z,10.35
2023-01-30T13:08:29.703Z,9.88
2023-01-30T13:10:09.696Z,10.30
2023-01-30T13:11:39.483Z,10.25
2023-01-30T13:12:51.871Z,11.45
2023-01-30T13:14:01.582Z,11.38
2023-01-30T13:15:20.767Z,11.60
2023-01-30T13:16:52.044Z,10.77
2023-01-30T13:18:15.123Z,11.68
2023-01-30T13:19:50.561Z,11.40
2023-01-30T13:21:09.514Z,10.98
2023-01-30T13:22:24.067Z,11.35
2023-01-30T13:23:38.935Z,11.43
2023-01-30T13:25:24.479Z,12.25
2023-01-30T13:26:37.734Z,11.68
2023-01-30T13:27:44.654Z,12.13
2023-01-30T13:28:51.074Z,11.05
2023-01-30T13:29:54.037Z,12.10
2023-01-30T13:30:57.055Z,12.50
2023-01-30T13:32:03.533Z,11.45
2023-01-30T13:33:13.800Z,11.48
2023-01-30T13:34:38.596Z,12.25
2023-01-30T13:35:50.063Z,12.00
2023-01-30T13:36:56.630Z,12.15
2023-01-30T13:38:00.505Z,11.82
2023-01-30T13:39:14.866Z,12.25
2023-01-30T13:40:25.297Z,12.98
2023-01-30T13:41:35.575Z,12.32
2023-01-30T13:42:53.684Z,12.32
2023-01-30T13:43:56.120Z,12.20
2023-01-30T13:45:00.528Z,12.77
2023-01-30T13:46:07.717Z,13.15
2023-01-30T13:47:42.700Z,12.20
2023-01-30T13:48:57.111Z,11.02
2023-01-30T13:50:14.964Z,11.68
2023-01-30T13:51:19.734Z,11.82
2023-01-30T13:52:34.411Z,11.90
2023-01-30T13:54:02.298Z,12.10
2023-01-30T13:55:34.866Z,11.25
2023-01-30T13:57:00.387Z,11.85
2023-01-30T13:58:14.693Z,12.05
2023-01-30T13:59:29.972Z,13.13
2023-01-30T14:00:33.855Z,11.90
2023-01-30T14:02:03.766Z,12.38
2023-01-30T14:03:06.043Z,12.30
2023-01-30T14:04:43.153Z,12.25
2023-01-30T14:05:51.298Z,12.65
2023-01-30T14:06:53.727Z,12.10
2023-01-30T14:07:56.229Z,11.60
2023-01-30T14:09:01.743Z,12.27
2023-01-30T14:10:09.786Z,12.00
2023-01-30T14:11:34.585Z,11.40
2023-01-30T14:12:52.371Z,12.20
2023-01-30T14:14:00.515Z,11.02
2023-01-30T14:15:08.877Z,12.23
2023-01-30T14:16:11.296Z,12.00
2023-01-30T14:17:16.499Z,12.95
2023-01-30T14:18:23.240Z,10.35
2023-01-30T14:19:34.865Z,11.20
2023-01-30T14:20:46.559Z,11.15
2023-01-30T14:22:00.466Z,10.93
2023-01-30T14:23:05.440Z,11.00
2023-01-30T14:24:22.027Z,10.18
2023-01-30T14:25:29.957Z,9.95
2023-01-30T14:26:47.279Z,10.27
2023-01-30T14:27:59.731Z,10.00
2023-01-30T14:29:01.946Z,10.63
2023-01-30T14:30:32.851Z,10.35
2023-01-30T14:31:46.972Z,9.52
2023-01-30T14:32:54.628Z,9.80
2023-01-30T14:33:56.790Z,10.27
2023-01-30T14:35:01.727Z,9.85
2023-01-30T14:36:07.373Z,10.05
2023-01-30T14:37:34.944Z,10.27
2023-01-30T14:38:39.199Z,9.68
2023-01-30T14:39:51.702Z,10.13
2023-01-30T14:41:02.605Z,9.48
2023-01-30T14:42:24.903Z,9.85
2023-01-30T14:43:37.265Z,9.75
2023-01-30T14:45:15.967Z,9.93
2023-01-30T14:46:18.339Z,9.93
2023-01-30T14:47:33.875Z,10.43
2023-01-30T14:48:56.863Z,10.32
2023-01-30T14:50:00.813Z,10.55
2023-01-30T14:51:43.449Z,9.15
2023-01-30T14:52:47.217Z,9.05
2023-01-30T14:54:12.834Z,9.35
2023-01-30T14:55:21.250Z,9.65
2023-01-30T14:56:43.762Z,9.50
2023-01-30T14:57:55.636Z,8.65
2023-01-30T14:59:03.577Z,8.82